Time;durP1;ratioP1;P1;durP2;ratioP2;P2;SDS_P1;SDS_P2;PMS_P1;PMS_P2;Temp;Humidity;BMP_temperature;BMP_pressure;BME280_temperature;BME280_humidity;BME280_pressure;Samples;Min_cycle;Max_cycle;Signal;HPM_P1;HPM_P2
2023/06/08 00:02:46;;;;;;;;;;;;;;;22.82;40.93;95512.69;10313930;28;1945;-66
2023/06/08 00:07:46;;;;;;;;;;;;;;;22.82;41.29;95511.91;10311637;28;1892;-66
2023/06/08 00:12:47;;;;;;;;;;;;;;;22.81;41.15;95516.44;10307504;28;1982;-63
2023/06/08 00:17:47;;;;;;;;;;;;;;;22.80;41.27;95506.91;10296345;28;2353;-64
2023/06/08 00:22:47;;;;;;;;;;;;;;;22.81;40.98;95503.22;10308910;28;1897;-64
2023/06/08 00:27:47;;;;;;;;;;;;;;;22.80;41.08;95506.91;10304620;28;1894;-64
2023/06/08 00:32:48;;;;;;;;;;;;;;;22.80;40.85;95500.84;10308558;28;2305;-64
2023/06/08 00:37:48;;;;;;;;;;;;;;;22.80;41.15;95495.56;10307408;28;2098;-63
2023/06/08 00:42:49;;;;;;;;;;;;;;;22.80;41.13;95503.47;10308500;28;4472;-66
2023/06/08 00:47:49;;;;;;;;;;;;;;;22.79;41.10;95499.28;10306352;28;2277;-65
2023/06/08 00:52:49;;;;;;;;;;;;;;;22.78;41.09;95500.34;10298923;28;1948;-66
2023/06/08 00:57:53;;;;;;;;;;;;;;;22.76;40.92;95502.50;10307747;28;2007;-64
2023/06/08 01:02:55;;;;;;;;;;;;;;;22.75;40.96;95493.03;10293199;28;1975;-65
2023/06/08 01:07:59;;;;;;;;;;;;;;;22.75;40.64;95487.75;10307229;28;2107;-67
2023/06/08 01:13:18;;;;;;;;;;;;;;;22.74;40.64;95491.44;10303155;28;2005;-63
2023/06/08 01:18:22;;;;;;;;;;;;;;;22.74;40.79;95491.44;10309817;28;2226;-64
2023/06/08 01:23:22;;;;;;;;;;;;;;;22.73;40.92;95480.09;10298750;28;1985;-64
2023/06/08 01:28:23;;;;;;;;;;;;;;;22.73;40.59;95485.38;10308846;28;2382;-64
2023/06/08 01:33:24;;;;;;;;;;;;;;;22.71;40.79;95474.31;10306056;28;2009;-63
2023/06/08 01:38:40;;;;;;;;;;;;;;;22.71;40.84;95484.88;10305515;28;2003;-65
2023/06/08 01:43:41;;;;;;;;;;;;;;;22.71;40.81;95487.53;10294061;28;4442;-65
2023/06/08 01:48:41;;;;;;;;;;;;;;;22.71;40.74;95470.91;10306862;28;1954;-65
2023/06/08 01:53:41;;;;;;;;;;;;;;;22.71;40.90;95474.31;10317824;28;2356;-63
2023/06/08 01:58:41;;;;;;;;;;;;;;;22.71;40.93;95468.25;10307592;28;1921;-63
2023/06/08 02:03:42;;;;;;;;;;;;;;;22.72;40.80;95469.81;10307971;28;1917;-64
2023/06/08 02:08:42;;;;;;;;;;;;;;;22.71;40.86;95473.56;10307270;28;2003;-63
2023/06/08 02:13:43;;;;;;;;;;;;;;;22.70;40.78;95466.69;10303259;28;1977;-66
2023/06/08 02:18:44;;;;;;;;;;;;;;;22.70;40.57;95475.41;10303256;28;1962;-64
2023/06/08 02:23:45;;;;;;;;;;;;;;;22.70;40.52;95461.41;10303161;28;2265;-64
2023/06/08 02:28:46;;;;;;;;;;;;;;;22.70;40.88;95464.03;10309537;28;1881;-66
2023/06/08 02:33:46;;;;;;;;;;;;;;;22.70;40.63;95464.03;10305232;28;2034;-63
2023/06/08 02:38:46;;;;;;;;;;;;;;;22.70;40.83;95469.31;10305711;28;1887;-66
2023/06/08 02:43:46;;;;;;;;;;;;;;;22.70;40.94;95464.03;10305301;28;4441;-66
2023/06/08 02:48:47;;;;;;;;;;;;;;;22.69;40.89;95459.84;10287548;28;2046;-65
2023/06/08 02:53:47;;;;;;;;;;;;;;;22.67;40.94;95460.91;10304627;28;1908;-65
2023/06/08 02:58:48;;;;;;;;;;;;;;;22.69;40.84;95457.22;10304400;28;1977;-66
2023/06/08 03:03:48;;;;;;;;;;;;;;;22.67;40.93;95454.84;10303479;28;1870;-66
2023/06/08 03:08:53;;;;;;;;;;;;;;;22.69;40.94;95459.84;10302407;28;1894;-66
2023/06/08 03:13:53;;;;;;;;;;;;;;;22.67;40.79;95472.56;10304653;28;2078;-64
2023/06/08 03:18:54;;;;;;;;;;;;;;;22.67;40.86;95470.69;10305026;28;1947;-66
2023/06/08 03:23:55;;;;;;;;;;;;;;;22.67;40.82;95475.22;10305941;28;1867;-65
2023/06/08 03:28:55;;;;;;;;;;;;;;;22.65;40.99;95473.63;10305765;28;1925;-66
2023/06/08 03:33:56;;;;;;;;;;;;;;;22.65;41.03;95489.47;10297650;28;8372;-66
2023/06/08 03:38:56;;;;;;;;;;;;;;;22.65;41.05;95483.41;10304186;28;5359;-66
2023/06/08 03:43:56;;;;;;;;;;;;;;;22.64;40.73;95495.84;10300064;28;8295;-66
2023/06/08 03:48:56;;;;;;;;;;;;;;;22.64;40.96;95501.16;10304428;28;5506;-65
2023/06/08 03:53:57;;;;;;;;;;;;;;;22.64;40.94;95498.50;10302805;28;1854;-66
2023/06/08 03:58:58;;;;;;;;;;;;;;;22.63;41.02;95498.78;10303017;28;2057;-66
2023/06/08 04:03:58;;;;;;;;;;;;;;;22.63;41.01;95486.34;10285617;28;2082;-66
2023/06/08 04:09:00;;;;;;;;;;;;;;;22.62;40.78;95490.09;10298893;28;5360;-66
2023/06/08 04:14:00;;;;;;;;;;;;;;;22.61;40.66;95493.78;10298872;28;2032;-65
2023/06/08 04:19:00;;;;;;;;;;;;;;;22.62;40.93;95495.38;10301199;28;1915;-66
2023/06/08 04:24:01;;;;;;;;;;;;;;;22.61;40.56;95493.00;10302072;28;1838;-66
2023/06/08 04:29:03;;;;;;;;;;;;;;;22.61;40.51;95498.28;10300414;28;2152;-65
2023/06/08 04:34:03;;;;;;;;;;;;;;;22.60;40.87;95491.44;10300247;28;1962;-67
2023/06/08 04:39:03;;;;;;;;;;;;;;;22.59;40.76;95493.31;10293011;28;1943;-66
2023/06/08 04:44:05;;;;;;;;;;;;;;;22.59;40.79;95501.22;10302942;28;6494;-65
2023/06/08 04:49:05;;;;;;;;;;;;;;;22.59;40.68;95503.88;10311191;28;1881;-64
2023/06/08 04:54:05;;;;;;;;;;;;;;;22.59;40.47;95509.16;10299519;28;2007;-65
2023/06/08 04:59:06;;;;;;;;;;;;;;;22.60;40.55;95508.09;10307123;28;1961;-65
2023/06/08 05:04:07;;;;;;;;;;;;;;;22.60;40.62;95505.44;10309971;28;1930;-64
2023/06/08 05:09:07;;;;;;;;;;;;;;;22.62;40.39;95505.16;10305806;28;1887;-64
2023/06/08 05:14:10;;;;;;;;;;;;;;;22.62;40.79;95511.22;10308075;28;1827;-64
2023/06/08 05:19:11;;;;;;;;;;;;;;;22.63;40.77;95511.97;10308578;28;1891;-64
2023/06/08 05:24:11;;;;;;;;;;;;;;;22.63;40.73;95517.28;10309016;28;2015;-64
2023/06/08 05:29:12;;;;;;;;;;;;;;;22.65;40.82;95521.19;10303872;28;2196;-64
2023/06/08 05:34:12;;;;;;;;;;;;;;;22.67;40.85;95514.84;10307187;28;1936;-64
2023/06/08 05:39:12;;;;;;;;;;;;;;;22.69;40.93;95512.69;10306197;28;2195;-59
2023/06/08 05:44:12;;;;;;;;;;;;;;;22.68;40.81;95511.91;10303851;28;4639;-60
2023/06/08 05:49:13;;;;;;;;;;;;;;;22.71;40.99;95523.75;10304573;28;2041;-65
2023/06/08 05:54:13;;;;;;;;;;;;;;;22.72;41.14;95518.16;10306109;28;1890;-61
2023/06/08 05:59:13;;;;;;;;;;;;;;;22.74;41.26;95523.94;10305831;28;1907;-60
2023/06/08 06:04:14;;;;;;;;;;;;;;;22.75;41.18;95514.94;10307533;28;2142;-60
2023/06/08 06:09:14;;;;;;;;;;;;;;;22.76;41.40;95519.16;10302476;28;2086;-67
2023/06/08 06:14:15;;;;;;;;;;;;;;;22.76;41.85;95521.00;10300553;28;1942;-63
2023/06/08 06:19:15;;;;;;;;;;;;;;;22.78;41.98;95514.34;10303058;28;2047;-66
2023/06/08 06:24:17;;;;;;;;;;;;;;;22.81;42.41;95513.78;10305499;28;2042;-65
2023/06/08 06:29:18;;;;;;;;;;;;;;;22.83;42.33;95502.91;10299761;28;1901;-65
2023/06/08 06:34:19;;;;;;;;;;;;;;;22.84;42.79;95505.25;10295124;28;2393;-65
2023/06/08 06:39:19;;;;;;;;;;;;;;;22.86;42.59;95505.75;10304388;28;1895;-67
2023/06/08 06:44:19;;;;;;;;;;;;;;;22.87;42.79;95506.53;10309579;28;4961;-64
2023/06/08 06:49:20;;;;;;;;;;;;;;;22.88;42.84;95505.44;10325510;28;1330;-62
2023/06/08 06:54:21;;;;;;;;;;;;;;;22.89;42.48;95507.81;10311801;28;1222;-64
2023/06/08 06:59:22;;;;;;;;;;;;;;;22.91;42.55;95510.16;10306387;28;1883;-64
2023/06/08 07:04:22;;;;;;;;;;;;;;;22.92;42.67;95512.50;10312725;28;1265;-64
2023/06/08 07:09:24;;;;;;;;;;;;;;;22.93;42.71;95521.22;10302408;28;1370;-64
2023/06/08 07:14:25;;;;;;;;;;;;;;;22.95;42.60;95524.34;10310204;28;1507;-64
2023/06/08 07:19:25;;;;;;;;;;;;;;;22.95;42.95;95519.06;10312514;28;1962;-64
2023/06/08 07:24:25;;;;;;;;;;;;;;;22.95;42.98;95516.41;10299850;28;1406;-64
2023/06/08 07:29:25;;;;;;;;;;;;;;;22.96;43.04;95521.41;10314590;28;2468;-64
2023/06/08 07:34:26;;;;;;;;;;;;;;;22.96;43.03;95521.41;10310203;28;1390;-64
2023/06/08 07:39:26;;;;;;;;;;;;;;;22.96;43.08;95520.63;10313746;28;1887;-64
2023/06/08 07:44:27;;;;;;;;;;;;;;;22.96;43.08;95515.31;10306020;28;5052;-65
2023/06/08 07:49:30;;;;;;;;;;;;;;;22.97;42.89;95514.25;10314269;28;1478;-64
2023/06/08 07:54:30;;;;;;;;;;;;;;;22.96;43.17;95518.75;10310388;28;1405;-64
2023/06/08 07:59:31;;;;;;;;;;;;;;;22.96;43.14;95513.47;10311278;28;1915;-64
2023/06/08 08:04:31;;;;;;;;;;;;;;;22.96;43.21;95505.53;10309127;28;1223;-64
2023/06/08 08:09:32;;;;;;;;;;;;;;;22.97;42.94;95501.03;10310902;28;1461;-64
2023/06/08 08:14:32;;;;;;;;;;;;;;;22.97;43.06;95501.03;10314190;28;1437;-64
2023/06/08 08:19:32;;;;;;;;;;;;;;;22.97;43.13;95499.19;10321034;28;2041;-64
2023/06/08 08:24:32;;;;;;;;;;;;;;;22.98;43.29;95502.63;10313782;28;1388;-64
2023/06/08 08:29:33;;;;;;;;;;;;;;;22.97;43.09;95496.56;10318159;28;2625;-64
2023/06/08 08:34:33;;;;;;;;;;;;;;;22.98;43.36;95503.38;10312407;28;1192;-65
2023/06/08 08:39:33;;;;;;;;;;;;;;;22.98;43.18;95495.47;10301221;28;1965;-65
2023/06/08 08:44:33;;;;;;;;;;;;;;;22.98;43.46;95497.34;10313541;28;4977;-65
2023/06/08 08:49:40;;;;;;;;;;;;;;;22.98;43.42;95498.09;10303068;28;1179;-64
2023/06/08 08:54:42;;;;;;;;;;;;;;;22.99;43.49;95498.88;10295760;28;1408;-64
2023/06/08 08:59:43;;;;;;;;;;;;;;;23.00;43.52;95500.47;10302272;28;1956;-65
2023/06/08 09:04:44;;;;;;;;;;;;;;;22.98;43.44;95490.16;10300095;28;1525;-64
2023/06/08 09:10:04;;;;;;;;;;;;;;;23.00;43.23;95497.84;10316359;28;1092;-64
2023/06/08 09:15:05;;;;;;;;;;;;;;;23.00;43.34;95489.91;10312546;28;1890;-64
2023/06/08 09:20:08;;;;;;;;;;;;;;;22.99;43.33;95483.81;10319026;28;1914;-64
2023/06/08 09:25:09;;;;;;;;;;;;;;;23.00;43.34;95484.63;10312562;28;2388;-64
2023/06/08 09:30:35;;;;;;;;;;;;;;;23.01;43.70;95475.59;10313769;28;1418;-64
2023/06/08 09:35:36;;;;;;;;;;;;;;;23.00;43.64;95471.41;10290736;28;1401;-64
2023/06/08 09:40:36;;;;;;;;;;;;;;;23.01;43.70;95467.66;10317791;28;4584;-64
2023/06/08 09:45:43;;;;;;;;;;;;;;;23.01;43.79;95459.72;10311344;28;1369;-64
2023/06/08 09:50:43;;;;;;;;;;;;;;;23.03;43.63;95462.84;10317956;28;1127;-64
2023/06/08 09:55:44;;;;;;;;;;;;;;;23.02;43.63;95458.66;10313935;28;1430;-64
2023/06/08 10:00:45;;;;;;;;;;;;;;;23.03;43.83;95461.00;10300025;28;1914;-64
2023/06/08 10:05:45;;;;;;;;;;;;;;;23.04;43.81;95454.63;10310316;28;1465;-64
2023/06/08 10:10:47;;;;;;;;;;;;;;;23.05;43.58;95452.78;10317171;28;1198;-65
2023/06/08 10:15:47;;;;;;;;;;;;;;;23.05;43.59;95450.13;10309586;28;1397;-64
2023/06/08 10:20:47;;;;;;;;;;;;;;;23.05;43.86;95445.63;10299318;28;2352;-64
2023/06/08 10:25:50;;;;;;;;;;;;;;;23.05;43.98;95444.84;10312435;28;1152;-64
2023/06/08 10:30:50;;;;;;;;;;;;;;;23.06;43.90;95441.13;10299067;28;1387;-64
2023/06/08 10:36:07;;;;;;;;;;;;;;;23.07;43.80;95424.19;10316012;28;1127;-64
2023/06/08 10:41:07;;;;;;;;;;;;;;;23.07;43.74;95426.81;10307538;28;4789;-64
2023/06/08 10:46:07;;;;;;;;;;;;;;;23.07;43.78;95414.38;10308466;28;1400;-64
2023/06/08 10:51:11;;;;;;;;;;;;;;;23.07;43.87;95411.75;10316184;28;1198;-64
2023/06/08 10:56:11;;;;;;;;;;;;;;;23.08;44.09;95409.88;10310734;28;1386;-64
2023/06/08 11:01:11;;;;;;;;;;;;;;;23.08;44.01;95405.38;10306971;28;1891;-64
2023/06/08 11:06:12;;;;;;;;;;;;;;;23.09;44.22;95406.94;10313802;28;1394;-64
2023/06/08 11:11:12;;;;;;;;;;;;;;;23.10;44.07;95411.13;10315362;28;1076;-64
2023/06/08 11:16:12;;;;;;;;;;;;;;;23.11;44.21;95409.28;10306957;28;2532;-64
2023/06/08 11:21:13;;;;;;;;;;;;;;;23.12;44.15;95405.56;10309124;28;1899;-64
2023/06/08 11:26:13;;;;;;;;;;;;;;;23.12;43.90;95413.50;10321619;28;1136;-64
2023/06/08 11:31:13;;;;;;;;;;;;;;;23.12;44.25;95408.97;10311878;28;1395;-64
2023/06/08 11:36:13;;;;;;;;;;;;;;;23.13;44.28;95410.56;10315619;28;1206;-64
2023/06/08 11:41:14;;;;;;;;;;;;;;;23.14;44.06;95411.34;10313294;28;4631;-64
2023/06/08 11:46:15;;;;;;;;;;;;;;;23.14;44.02;95406.06;10308903;28;1409;-64
2023/06/08 11:51:17;;;;;;;;;;;;;;;23.13;44.07;95407.91;10314174;28;1189;-64
2023/06/08 11:56:17;;;;;;;;;;;;;;;23.15;44.20;95404.97;10306900;28;1334;-65
2023/06/08 12:01:18;;;;;;;;;;;;;;;23.15;44.27;95403.09;10296020;28;1919;-64
2023/06/08 12:06:19;;;;;;;;;;;;;;;23.15;44.25;95392.53;10306442;28;1498;-64
2023/06/08 12:11:19;;;;;;;;;;;;;;;23.14;44.21;95396.25;10310628;28;2428;-64
2023/06/08 12:16:19;;;;;;;;;;;;;;;23.15;44.32;95397.81;10298527;28;1353;-64
2023/06/08 12:21:20;;;;;;;;;;;;;;;23.16;44.26;95380.84;10312506;28;1906;-64
2023/06/08 12:26:20;;;;;;;;;;;;;;;23.16;44.24;95374.81;10302919;28;1576;-64
2023/06/08 12:31:21;;;;;;;;;;;;;;;23.16;44.26;95369.53;10313786;28;1449;-64
2023/06/08 12:36:21;;;;;;;;;;;;;;;23.16;44.22;95370.28;10312413;28;1328;-64
2023/06/08 12:41:22;;;;;;;;;;;;;;;23.16;44.29;95367.63;10308895;28;4763;-64
2023/06/08 12:46:23;;;;;;;;;;;;;;;23.17;44.33;95363.13;10311309;28;1533;-64
2023/06/08 12:51:23;;;;;;;;;;;;;;;23.16;44.43;95356.31;10311718;28;1522;-64
2023/06/08 12:56:23;;;;;;;;;;;;;;;23.16;44.39;95356.31;10312910;28;1206;-64
2023/06/08 13:01:23;;;;;;;;;;;;;;;23.16;44.43;95345.72;10311899;28;1946;-64
2023/06/08 13:06:23;;;;;;;;;;;;;;;23.16;44.53;95335.91;10316888;28;2320;-64
2023/06/08 13:11:24;;;;;;;;;;;;;;;23.16;44.34;95343.09;10319923;28;1135;-64
2023/06/08 13:16:24;;;;;;;;;;;;;;;23.15;44.11;95344.16;10310529;28;1367;-64
2023/06/08 13:21:24;;;;;;;;;;;;;;;23.16;44.33;95351.00;10318753;28;1891;-64
2023/06/08 13:26:25;;;;;;;;;;;;;;;23.16;44.30;95361.59;10311474;28;1655;-64
2023/06/08 13:31:26;;;;;;;;;;;;;;;23.16;44.25;95372.16;10318765;28;1459;-64
2023/06/08 13:36:27;;;;;;;;;;;;;;;23.15;44.27;95365.31;10322921;28;1329;-64
2023/06/08 13:41:33;;;;;;;;;;;;;;;23.14;44.23;95364.50;10315674;28;4794;-64
2023/06/08 13:46:33;;;;;;;;;;;;;;;23.14;44.30;95363.75;10309961;28;1553;-64
2023/06/08 13:51:34;;;;;;;;;;;;;;;23.14;44.20;95350.53;10318147;28;1107;-64
2023/06/08 13:56:35;;;;;;;;;;;;;;;23.14;44.32;95355.81;10312304;28;1802;-64
2023/06/08 14:01:35;;;;;;;;;;;;;;;23.14;44.19;95340.72;10319585;28;1976;-63
2023/06/08 14:06:35;;;;;;;;;;;;;;;23.15;44.22;95333.56;10311192;28;2301;-63
2023/06/08 14:11:35;;;;;;;;;;;;;;;23.15;44.19;95323.78;10309345;28;1332;-63
2023/06/08 14:16:36;;;;;;;;;;;;;;;23.15;44.55;95315.06;10316699;28;1619;-64
2023/06/08 14:21:36;;;;;;;;;;;;;;;23.16;44.30;95314.00;10312670;28;1957;-64
2023/06/08 14:26:36;;;;;;;;;;;;;;;23.15;44.47;95302.63;10315171;28;1068;-60
2023/06/08 14:31:37;;;;;;;;;;;;;;;23.17;44.39;95297.03;10315188;28;1403;-64
2023/06/08 14:36:37;;;;;;;;;;;;;;;23.17;44.64;95294.41;10316353;28;1178;-64
2023/06/08 14:41:37;;;;;;;;;;;;;;;23.16;44.46;95285.69;10321942;28;4656;-64
2023/06/08 14:46:37;;;;;;;;;;;;;;;23.17;44.46;95294.41;10314616;28;1627;-64
2023/06/08 14:51:38;;;;;;;;;;;;;;;23.17;44.65;95283.81;10315505;28;1186;-64
2023/06/08 14:56:38;;;;;;;;;;;;;;;23.18;44.73;95286.19;10312998;28;1670;-64
2023/06/08 15:01:38;;;;;;;;;;;;;;;23.18;44.51;95294.13;10310084;28;1948;-64
2023/06/08 15:06:39;;;;;;;;;;;;;;;23.19;44.70;95286.94;10313500;28;1350;-64
2023/06/08 15:11:39;;;;;;;;;;;;;;;23.19;44.44;95268.44;10314643;28;1127;-64
2023/06/08 15:16:40;;;;;;;;;;;;;;;23.19;44.74;95260.50;10310729;28;1540;-64
2023/06/08 15:21:41;;;;;;;;;;;;;;;23.19;44.64;95260.50;10314079;28;1899;-63
2023/06/08 15:26:41;;;;;;;;;;;;;;;23.19;44.53;95256.00;10314763;28;1418;-63
2023/06/08 15:31:41;;;;;;;;;;;;;;;23.19;44.53;95249.94;10316689;28;1115;-63
2023/06/08 15:36:42;;;;;;;;;;;;;;;23.19;44.67;95250.72;10304235;28;1450;-63
2023/06/08 15:41:43;;;;;;;;;;;;;;;23.20;44.59;95240.91;10313654;28;4663;-64
2023/06/08 15:46:43;;;;;;;;;;;;;;;23.19;44.92;95234.84;10313340;28;1801;-64
2023/06/08 15:51:43;;;;;;;;;;;;;;;23.20;44.58;95240.91;10312545;28;1307;-63
2023/06/08 15:56:43;;;;;;;;;;;;;;;23.21;44.63;95231.91;10313397;28;1150;-63
2023/06/08 16:01:44;;;;;;;;;;;;;;;23.20;44.86;95225.84;10308760;28;1976;-63
2023/06/08 16:06:44;;;;;;;;;;;;;;;23.20;44.69;95217.13;10311516;28;1404;-64
2023/06/08 16:11:44;;;;;;;;;;;;;;;23.20;44.66;95203.91;10313016;28;1119;-62
2023/06/08 16:16:44;;;;;;;;;;;;;;;23.20;44.82;95199.41;10310880;28;1469;-63
2023/06/08 16:21:46;;;;;;;;;;;;;;;23.21;44.68;95200.16;10312608;28;1950;-63
2023/06/08 16:26:46;;;;;;;;;;;;;;;23.20;44.83;95191.47;10312351;28;1340;-63
2023/06/08 16:31:49;;;;;;;;;;;;;;;23.20;44.78;95178.25;10316675;28;1159;-63
2023/06/08 16:36:50;;;;;;;;;;;;;;;23.22;44.54;95170.00;10319316;28;1410;-63
2023/06/08 16:41:50;;;;;;;;;;;;;;;23.20;44.59;95172.97;10320506;28;4854;-63
2023/06/08 16:46:52;;;;;;;;;;;;;;;23.21;44.58;95168.44;10316778;28;1617;-64
2023/06/08 16:51:53;;;;;;;;;;;;;;;23.21;44.69;95171.06;10318755;28;2259;-64
2023/06/08 16:56:53;;;;;;;;;;;;;;;23.21;44.62;95179.00;10303637;28;1234;-63
2023/06/08 17:01:54;;;;;;;;;;;;;;;23.20;44.77;95180.91;10315769;28;1952;-64
2023/06/08 17:06:54;;;;;;;;;;;;;;;23.20;44.82;95188.81;10312618;28;1468;-64
2023/06/08 17:11:54;;;;;;;;;;;;;;;23.21;44.90;95192.22;10319484;28;1155;-64
2023/06/08 17:16:55;;;;;;;;;;;;;;;23.21;44.89;95189.59;10316724;28;1568;-64
2023/06/08 17:21:55;;;;;;;;;;;;;;;23.21;44.92;95202.81;10305466;28;1891;-64
2023/06/08 17:26:56;;;;;;;;;;;;;;;23.21;44.90;95205.44;10314879;28;1428;-65
2023/06/08 17:31:56;;;;;;;;;;;;;;;23.21;44.86;95202.81;10321549;28;1206;-64
2023/06/08 17:36:56;;;;;;;;;;;;;;;23.21;44.61;95210.75;10317881;28;1429;-64
2023/06/08 17:41:57;;;;;;;;;;;;;;;23.21;44.68;95213.38;10317948;28;1899;-64
2023/06/08 17:46:57;;;;;;;;;;;;;;;23.21;44.51;95213.38;10315920;28;1627;-64
2023/06/08 17:51:58;;;;;;;;;;;;;;;23.21;44.51;95208.09;10313427;28;1487;-63
2023/06/08 17:56:58;;;;;;;;;;;;;;;23.22;44.85;95222.91;10311460;28;1172;-64
2023/06/08 18:01:58;;;;;;;;;;;;;;;23.21;44.44;95227.41;10314930;28;1944;-64
2023/06/08 18:06:58;;;;;;;;;;;;;;;23.22;44.48;95233.47;10310082;28;1332;-64
2023/06/08 18:11:59;;;;;;;;;;;;;;;23.21;44.55;95243.25;10316680;28;1159;-64
2023/06/08 18:16:59;;;;;;;;;;;;;;;23.20;44.72;95256.78;10314621;28;1802;-64
2023/06/08 18:21:59;;;;;;;;;;;;;;;23.21;44.67;95287.41;10299005;28;1890;-64
2023/06/08 18:27:00;;;;;;;;;;;;;;;23.22;44.41;95331.31;10315738;28;1338;-64
2023/06/08 18:32:00;;;;;;;;;;;;;;;23.21;44.43;95330.53;10318402;28;1203;-64
2023/06/08 18:37:00;;;;;;;;;;;;;;;23.20;44.45;95330.81;10311449;28;1426;-64
2023/06/08 18:42:01;;;;;;;;;;;;;;;23.20;44.55;95359.91;10303113;28;1899;-64
2023/06/08 18:47:01;;;;;;;;;;;;;;;23.20;44.50;95391.66;10312296;28;2300;-64
2023/06/08 18:52:02;;;;;;;;;;;;;;;23.20;44.37;95405.66;10316120;28;1143;-64
2023/06/08 18:57:03;;;;;;;;;;;;;;;23.21;44.34;95387.91;10314230;28;1600;-64
2023/06/08 19:02:03;;;;;;;;;;;;;;;23.20;44.15;95381.06;10315193;28;1895;-64
2023/06/08 19:07:03;;;;;;;;;;;;;;;23.19;44.14;95401.44;10315434;28;1222;-64
2023/06/08 19:12:04;;;;;;;;;;;;;;;23.21;44.44;95419.63;10296988;28;1346;-64
2023/06/08 19:17:05;;;;;;;;;;;;;;;23.20;44.36;95434.75;10314640;28;1731;-64
2023/06/08 19:22:05;;;;;;;;;;;;;;;23.20;44.46;95441.88;10314938;28;1943;-64
2023/06/08 19:27:06;;;;;;;;;;;;;;;23.19;44.36;95445.59;10315035;28;1076;-64
2023/06/08 19:32:06;;;;;;;;;;;;;;;23.20;44.29;95445.31;10311314;28;1449;-64
2023/06/08 19:37:07;;;;;;;;;;;;;;;23.20;44.42;95439.25;10311362;28;1394;-64
2023/06/08 19:42:08;;;;;;;;;;;;;;;23.20;44.37;95426.03;10312184;28;4678;-65
2023/06/08 19:47:08;;;;;;;;;;;;;;;23.20;44.10;95415.44;10313076;28;1687;-64
2023/06/08 19:52:08;;;;;;;;;;;;;;;23.19;44.32;95403.28;10308543;28;1409;-65
2023/06/08 19:57:08;;;;;;;;;;;;;;;23.20;44.14;95410.16;10314553;28;1186;-64
2023/06/08 20:02:09;;;;;;;;;;;;;;;23.20;44.36;95415.44;10311425;28;1887;-64
2023/06/08 20:07:12;;;;;;;;;;;;;;;23.19;44.21;95419.94;10312712;28;1350;-64
2023/06/08 20:12:13;;;;;;;;;;;;;;;23.20;44.36;95420.72;10313648;28;1472;-64
2023/06/08 20:17:13;;;;;;;;;;;;;;;23.20;44.35;95420.72;10321021;28;1485;-64
2023/06/08 20:22:13;;;;;;;;;;;;;;;23.20;44.35;95407.50;10320220;28;1938;-64
2023/06/08 20:27:13;;;;;;;;;;;;;;;23.20;44.38;95404.88;10305400;28;1021;-64
2023/06/08 20:32:14;;;;;;;;;;;;;;;23.20;44.10;95410.94;10319331;28;1390;-64
2023/06/08 20:37:15;;;;;;;;;;;;;;;23.20;43.97;95410.16;10321311;28;2300;-64
2023/06/08 20:42:16;;;;;;;;;;;;;;;23.19;44.13;95424.44;10311780;28;4734;-64
2023/06/08 20:47:16;;;;;;;;;;;;;;;23.18;43.81;95421.03;10319512;28;1577;-64
2023/06/08 20:52:17;;;;;;;;;;;;;;;23.17;43.94;95430.03;10317141;28;1385;-64
2023/06/08 20:57:17;;;;;;;;;;;;;;;23.17;43.89;95439.81;10319346;28;1147;-64
2023/06/08 21:02:17;;;;;;;;;;;;;;;23.16;43.85;95425.81;10314987;28;1964;-64
2023/06/08 21:07:17;;;;;;;;;;;;;;;23.15;43.52;95432.19;10319014;28;1159;-64
2023/06/08 21:12:18;;;;;;;;;;;;;;;23.16;43.55;95438.28;10312240;28;1488;-64
2023/06/08 21:17:18;;;;;;;;;;;;;;;23.15;43.75;95432.19;10311260;28;1622;-64
2023/06/08 21:22:18;;;;;;;;;;;;;;;23.15;43.75;95428.75;10317418;28;1918;-64
2023/06/08 21:27:20;;;;;;;;;;;;;;;23.14;43.32;95421.91;10318395;28;1370;-64
2023/06/08 21:32:20;;;;;;;;;;;;;;;23.14;43.65;95435.16;10319655;28;1202;-64
2023/06/08 21:37:20;;;;;;;;;;;;;;;23.13;43.77;95431.72;10318187;28;2426;-64
2023/06/08 21:42:21;;;;;;;;;;;;;;;23.14;43.58;95421.91;10317182;28;4757;-64
2023/06/08 21:47:21;;;;;;;;;;;;;;;23.13;43.71;95420.34;10318692;28;1191;-64
2023/06/08 21:52:21;;;;;;;;;;;;;;;23.14;43.44;95424.56;10318640;28;1337;-62
2023/06/08 21:57:22;;;;;;;;;;;;;;;23.14;43.58;95421.91;10318641;28;1115;-64
2023/06/08 22:02:22;;;;;;;;;;;;;;;23.14;43.67;95425.31;10312256;28;1888;-64
2023/06/08 22:07:22;;;;;;;;;;;;;;;23.14;43.57;95427.97;10314855;28;1424;-64
2023/06/08 22:12:23;;;;;;;;;;;;;;;23.14;43.54;95417.41;10316584;28;1473;-64
2023/06/08 22:17:24;;;;;;;;;;;;;;;23.15;43.67;95423.47;10309681;28;1430;-64
2023/06/08 22:22:25;;;;;;;;;;;;;;;23.15;43.47;95424.25;10314781;28;1973;-64
2023/06/08 22:27:25;;;;;;;;;;;;;;;23.15;43.73;95434.03;10308969;28;1366;-64
2023/06/08 22:32:25;;;;;;;;;;;;;;;23.15;43.36;95441.97;10312679;28;2407;-64
2023/06/08 22:37:26;;;;;;;;;;;;;;;23.15;43.63;95431.41;10312015;28;1358;-64
2023/06/08 22:42:26;;;;;;;;;;;;;;;23.15;43.41;95426.13;10314644;28;4670;-64
2023/06/08 22:47:29;;;;;;;;;;;;;;;23.14;43.35;95435.16;10316863;28;1222;-64
2023/06/08 22:52:31;;;;;;;;;;;;;;;23.14;43.55;95438.53;10304548;28;1473;-64
2023/06/08 22:57:31;;;;;;;;;;;;;;;23.14;43.28;95437.78;10316702;28;1108;-64
2023/06/08 23:02:34;;;;;;;;;;;;;;;23.14;43.46;95437.78;10291652;28;1910;-64
2023/06/08 23:07:34;;;;;;;;;;;;;;;23.14;43.36;95427.97;10315874;28;1166;-64
2023/06/08 23:12:35;;;;;;;;;;;;;;;23.13;43.44;95434.34;10311940;28;1435;-64
2023/06/08 23:17:36;;;;;;;;;;;;;;;23.13;43.36;95429.06;10308331;28;1366;-64
2023/06/08 23:22:36;;;;;;;;;;;;;;;23.14;43.51;95432.50;10313760;28;1974;-64
2023/06/08 23:27:36;;;;;;;;;;;;;;;23.13;43.32;95429.06;10314197;28;2450;-64
2023/06/08 23:32:37;;;;;;;;;;;;;;;23.13;43.27;95421.13;10309954;28;1303;-64
2023/06/08 23:37:37;;;;;;;;;;;;;;;23.14;43.21;95416.63;10314821;28;1446;-64
2023/06/08 23:42:38;;;;;;;;;;;;;;;23.13;43.28;95421.13;10312672;28;4865;-64
2023/06/08 23:47:40;;;;;;;;;;;;;;;23.13;43.36;95409.75;10297005;28;1076;-64
2023/06/08 23:52:40;;;;;;;;;;;;;;;23.14;43.19;95388.31;10306885;28;1342;-64
2023/06/08 23:57:41;;;;;;;;;;;;;;;23.14;43.18;95380.38;10314241;28;1184;-65
